Time;durP1;ratioP1;P1;durP2;ratioP2;P2;SDS_P1;SDS_P2;PMS_P1;PMS_P2;Temp;Humidity;BMP_temperature;BMP_pressure;BME280_temperature;BME280_humidity;BME280_pressure;Samples;Min_cycle;Max_cycle;Signal;HPM_P1;HPM_P2
2021/10/23 00:00:53;;;;;;;;;;;;;;;8.18;47.80;98257.44;1767200;81;20802;-83
2021/10/23 00:03:25;;;;;;;;;;;;;;;8.18;47.84;98260.05;1766838;81;24771;-83
2021/10/23 00:05:51;;;;;;;;;;;;;;;8.17;47.92;98255.30;1766320;81;22213;-83
2021/10/23 00:08:17;;;;;;;;;;;;;;;8.16;47.97;98264.05;1764047;81;21065;-83
2021/10/23 00:10:45;;;;;;;;;;;;;;;8.14;48.02;98275.48;1762148;81;20839;-83
2021/10/23 00:13:11;;;;;;;;;;;;;;;8.14;48.07;98276.78;1763598;80;20488;-83
2021/10/23 00:15:37;;;;;;;;;;;;;;;8.14;48.11;98284.61;1761858;81;20224;-83
2021/10/23 00:18:05;;;;;;;;;;;;;;;8.15;48.20;98290.20;1765384;81;21979;-83
2021/10/23 00:20:51;;;;;;;;;;;;;;;8.14;48.25;98288.05;1754219;80;22153;-82
2021/10/23 00:23:17;;;;;;;;;;;;;;;8.13;48.33;98284.26;1755069;80;20245;-82
2021/10/23 00:25:43;;;;;;;;;;;;;;;8.15;48.41;98292.80;1757083;80;20231;-83
2021/10/23 00:28:09;;;;;;;;;;;;;;;8.15;48.46;98299.31;1754838;80;20249;-83
2021/10/23 00:30:35;;;;;;;;;;;;;;;8.16;48.50;98312.73;1755066;80;20233;-82
2021/10/23 00:33:05;;;;;;;;;;;;;;;8.16;48.55;98312.27;1752831;80;20936;-83
2021/10/23 00:35:29;;;;;;;;;;;;;;;8.16;48.62;98318.78;1714944;82;24476;-83
2021/10/23 00:38:03;;;;;;;;;;;;;;;8.16;48.67;98323.16;1707683;82;20491;-83
2021/10/23 00:40:29;;;;;;;;;;;;;;;8.16;48.74;98310.96;1752672;81;24820;-83
2021/10/23 00:42:56;;;;;;;;;;;;;;;8.17;48.78;98319.63;1755388;80;21970;-82
2021/10/23 00:45:24;;;;;;;;;;;;;;;8.18;48.86;98309.57;1753718;80;25938;-83
2021/10/23 00:47:51;;;;;;;;;;;;;;;8.18;48.90;98316.89;1757066;80;24694;-83
2021/10/23 00:50:16;;;;;;;;;;;;;;;8.16;48.97;98324.00;1754175;80;20434;-83
2021/10/23 00:52:44;;;;;;;;;;;;;;;8.13;49.01;98324.16;1755861;80;20785;-83
2021/10/23 00:55:12;;;;;;;;;;;;;;;8.11;49.07;98331.72;1757618;80;22095;-83
2021/10/23 00:57:42;;;;;;;;;;;;;;;8.07;49.12;98338.06;1754501;80;26148;-83
2021/10/23 01:00:09;;;;;;;;;;;;;;;8.05;49.18;98335.55;1757810;80;24459;-83
2021/10/23 01:02:35;;;;;;;;;;;;;;;8.03;49.25;98326.13;1756667;80;20441;-82
2021/10/23 01:05:03;;;;;;;;;;;;;;;7.99;49.31;98326.33;1757423;80;24675;-82
2021/10/23 01:07:29;;;;;;;;;;;;;;;7.95;49.40;98320.94;1754945;80;22682;-82
2021/10/23 01:09:55;;;;;;;;;;;;;;;7.93;49.48;98320.19;1757227;80;26080;-82
2021/10/23 01:12:28;;;;;;;;;;;;;;;7.92;49.55;98311.16;1755798;80;24718;-82
2021/10/23 01:14:54;;;;;;;;;;;;;;;7.88;49.65;98326.14;1754609;80;20211;-81
2021/10/23 01:17:21;;;;;;;;;;;;;;;7.87;49.73;98327.07;1755094;80;24693;-82
2021/10/23 01:19:49;;;;;;;;;;;;;;;7.85;49.82;98331.55;1753207;80;22064;-81
2021/10/23 01:22:15;;;;;;;;;;;;;;;7.82;49.93;98343.45;1759220;80;25897;-82
2021/10/23 01:24:41;;;;;;;;;;;;;;;7.79;50.01;98352.77;1761463;80;20321;-81
2021/10/23 01:27:07;;;;;;;;;;;;;;;7.76;50.10;98341.20;1762742;80;20345;-82
2021/10/23 01:29:34;;;;;;;;;;;;;;;7.74;50.21;98343.09;1761987;80;24972;-83
2021/10/23 01:32:00;;;;;;;;;;;;;;;7.70;50.31;98345.48;1762929;80;22068;-82
2021/10/23 01:34:26;;;;;;;;;;;;;;;7.67;50.42;98353.95;1759809;80;21046;-83
2021/10/23 01:36:55;;;;;;;;;;;;;;;7.63;50.53;98354.60;1760442;81;25278;-82
2021/10/23 01:39:23;;;;;;;;;;;;;;;7.60;50.64;98351.32;1760143;81;20282;-82
2021/10/23 01:41:53;;;;;;;;;;;;;;;7.57;50.77;98362.77;1759794;80;24863;-82
2021/10/23 01:44:21;;;;;;;;;;;;;;;7.57;50.88;98364.08;1755033;80;21964;-83
2021/10/23 01:46:47;;;;;;;;;;;;;;;7.57;50.99;98378.41;1759736;80;26079;-82
2021/10/23 01:49:13;;;;;;;;;;;;;;;7.58;51.08;98388.36;1760296;80;20272;-82
2021/10/23 01:51:39;;;;;;;;;;;;;;;7.57;51.20;98391.42;1759406;80;20205;-82
2021/10/23 01:54:06;;;;;;;;;;;;;;;7.58;51.28;98398.31;1761026;80;20749;-82
2021/10/23 01:56:33;;;;;;;;;;;;;;;7.57;51.38;98408.34;1758084;80;21956;-82
2021/10/23 01:59:01;;;;;;;;;;;;;;;7.59;51.47;98415.59;1760015;80;26605;-83
2021/10/23 02:01:27;;;;;;;;;;;;;;;7.61;51.60;98421.55;1757031;80;24387;-82
2021/10/23 02:03:53;;;;;;;;;;;;;;;7.63;51.69;98430.13;1761886;80;20215;-83
2021/10/23 02:06:19;;;;;;;;;;;;;;;7.65;51.79;98433.92;1759708;80;24768;-82
2021/10/23 02:08:45;;;;;;;;;;;;;;;7.66;51.89;98437.75;1760632;80;21849;-83
2021/10/23 02:11:11;;;;;;;;;;;;;;;7.67;51.99;98436.83;1760383;80;26018;-82
2021/10/23 02:13:40;;;;;;;;;;;;;;;7.67;52.08;98447.71;1760654;80;24484;-82
2021/10/23 02:16:10;;;;;;;;;;;;;;;7.65;52.21;98450.39;1760010;80;20190;-82
2021/10/23 02:18:36;;;;;;;;;;;;;;;7.65;52.32;98451.70;1714388;83;25524;-82
2021/10/23 02:21:05;;;;;;;;;;;;;;;7.62;52.46;98449.75;1705111;83;21977;-83
2021/10/23 02:23:37;;;;;;;;;;;;;;;7.60;52.55;98452.89;1683654;84;26940;-81
2021/10/23 02:26:03;;;;;;;;;;;;;;;7.58;52.67;98450.39;1685745;83;24446;-82
2021/10/23 02:28:29;;;;;;;;;;;;;;;7.52;52.77;98450.75;1708555;82;20320;-82
2021/10/23 02:30:55;;;;;;;;;;;;;;;7.47;52.89;98448.87;1690761;84;21057;-82
2021/10/23 02:33:21;;;;;;;;;;;;;;;7.42;53.02;98453.01;1687364;83;22108;-83
2021/10/23 02:35:47;;;;;;;;;;;;;;;7.41;53.10;98450.52;1685781;83;20884;-83
2021/10/23 02:38:14;;;;;;;;;;;;;;;7.37;53.22;98449.83;1697966;84;24573;-82
2021/10/23 02:40:40;;;;;;;;;;;;;;;7.35;53.33;98450.86;1697884;84;20547;-82
2021/10/23 02:43:06;;;;;;;;;;;;;;;7.36;53.46;98460.35;1698293;84;24725;-82
2021/10/23 02:45:34;;;;;;;;;;;;;;;7.35;53.58;98464.72;1664072;84;20253;-82
2021/10/23 02:48:01;;;;;;;;;;;;;;;7.37;53.69;98473.72;1698321;83;26048;-83
2021/10/23 02:50:27;;;;;;;;;;;;;;;7.38;53.79;98471.03;1697938;84;25327;-82
2021/10/23 02:52:54;;;;;;;;;;;;;;;7.43;53.90;98479.89;1698569;83;20748;-82
2021/10/23 02:55:20;;;;;;;;;;;;;;;7.47;53.99;98486.63;1697842;84;24719;-82
2021/10/23 02:57:46;;;;;;;;;;;;;;;7.51;54.09;98486.81;1697035;84;21947;-82
2021/10/23 03:00:12;;;;;;;;;;;;;;;7.54;54.17;98487.93;1698284;84;21229;-83
2021/10/23 03:02:38;;;;;;;;;;;;;;;7.57;54.27;98492.98;1696791;83;24542;-83
2021/10/23 03:05:05;;;;;;;;;;;;;;;7.59;54.36;98495.02;1697670;84;20559;-83
2021/10/23 03:07:31;;;;;;;;;;;;;;;7.60;54.45;98492.80;1698567;84;24816;-83
2021/10/23 03:09:57;;;;;;;;;;;;;;;7.61;54.52;98493.17;1698508;84;20332;-82
2021/10/23 03:12:27;;;;;;;;;;;;;;;7.62;54.57;98502.67;1698178;84;21734;-83
2021/10/23 03:14:53;;;;;;;;;;;;;;;7.62;54.66;98501.38;1698010;84;24470;-82
2021/10/23 03:17:20;;;;;;;;;;;;;;;7.61;54.71;98508.80;1698118;83;20205;-82
2021/10/23 03:19:46;;;;;;;;;;;;;;;7.61;54.80;98509.27;1697927;84;24763;-82
2021/10/23 03:22:12;;;;;;;;;;;;;;;7.60;54.86;98516.23;1692753;83;21990;-83
2021/10/23 03:24:38;;;;;;;;;;;;;;;7.61;54.94;98517.92;1687061;83;20949;-82
2021/10/23 03:27:07;;;;;;;;;;;;;;;7.63;55.00;98513.47;1692116;83;20914;-82
2021/10/23 03:29:33;;;;;;;;;;;;;;;7.65;55.09;98522.02;1709494;82;20226;-82
2021/10/23 03:31:59;;;;;;;;;;;;;;;7.66;55.17;98525.47;1718503;83;24803;-82
2021/10/23 03:34:25;;;;;;;;;;;;;;;7.66;55.22;98522.86;1709332;83;22055;-82
2021/10/23 03:36:51;;;;;;;;;;;;;;;7.63;55.33;98523.05;1745750;82;25855;-82
2021/10/23 03:39:19;;;;;;;;;;;;;;;7.59;55.39;98524.97;1734213;81;20305;-82
2021/10/23 03:41:45;;;;;;;;;;;;;;;7.55;55.47;98520.41;1731948;81;20249;-82
2021/10/23 03:44:11;;;;;;;;;;;;;;;7.51;55.55;98517.61;1701622;82;20539;-82
2021/10/23 03:46:37;;;;;;;;;;;;;;;7.50;55.61;98526.80;1730180;81;22152;-82
2021/10/23 03:49:04;;;;;;;;;;;;;;;7.49;55.76;98525.95;1734147;82;25966;-82
2021/10/23 03:51:30;;;;;;;;;;;;;;;7.49;55.87;98525.95;1734370;82;24454;-82
2021/10/23 03:53:55;;;;;;;;;;;;;;;7.49;55.96;98529.86;1734127;82;20293;-82
2021/10/23 03:56:21;;;;;;;;;;;;;;;7.48;56.07;98535.14;1734366;81;20720;-82
2021/10/23 03:58:48;;;;;;;;;;;;;;;7.48;56.16;98528.63;1733851;81;21934;-82
2021/10/23 04:01:13;;;;;;;;;;;;;;;7.47;56.24;98533.48;1733778;81;21073;-82
2021/10/23 04:03:39;;;;;;;;;;;;;;;7.43;56.36;98528.89;1734200;82;20880;-82
2021/10/23 04:06:05;;;;;;;;;;;;;;;7.41;56.44;98539.03;1734748;81;20523;-82
2021/10/23 04:08:35;;;;;;;;;;;;;;;7.36;56.55;98537.15;1733899;82;38731;-82
2021/10/23 04:11:02;;;;;;;;;;;;;;;7.33;56.66;98543.80;1733851;82;22767;-82
2021/10/23 04:13:28;;;;;;;;;;;;;;;7.29;56.78;98545.75;1733212;81;26647;-82
2021/10/23 04:15:57;;;;;;;;;;;;;;;7.30;56.89;98544.83;1731871;82;23788;-82
2021/10/23 04:18:23;;;;;;;;;;;;;;;7.32;57.01;98550.77;1732949;81;20171;-82
2021/10/23 04:20:50;;;;;;;;;;;;;;;7.30;57.13;98554.41;1733581;81;25658;-82
2021/10/23 04:23:16;;;;;;;;;;;;;;;7.31;57.25;98556.09;1742255;81;22154;-82
2021/10/23 04:25:41;;;;;;;;;;;;;;;7.34;57.37;98554.60;1723590;82;20869;-82
2021/10/23 04:28:07;;;;;;;;;;;;;;;7.38;57.49;98561.31;1744369;81;20852;-82
2021/10/23 04:30:34;;;;;;;;;;;;;;;7.38;57.59;98559.55;1744362;82;20238;-82
2021/10/23 04:33:08;;;;;;;;;;;;;;;7.39;57.70;98569.05;1744301;81;24832;-82
2021/10/23 04:35:34;;;;;;;;;;;;;;;7.37;57.78;98568.74;1744123;81;21982;-82
2021/10/23 04:38:00;;;;;;;;;;;;;;;7.31;57.87;98571.22;1744259;81;25974;-82
2021/10/23 04:40:28;;;;;;;;;;;;;;;7.23;57.95;98573.41;1744583;81;25348;-82
2021/10/23 04:42:54;;;;;;;;;;;;;;;7.17;58.05;98575.50;1723413;82;20270;-82
2021/10/23 04:45:20;;;;;;;;;;;;;;;7.12;58.14;98578.35;1744709;81;20298;-82
2021/10/23 04:47:46;;;;;;;;;;;;;;;7.10;58.22;98584.09;1721864;82;22004;-82
2021/10/23 04:50:12;;;;;;;;;;;;;;;7.06;58.34;98584.72;1743796;81;21047;-82
2021/10/23 04:52:38;;;;;;;;;;;;;;;7.03;58.43;98586.20;1744197;81;24551;-81
2021/10/23 04:55:06;;;;;;;;;;;;;;;6.97;58.54;98589.58;1744129;82;20956;-81
2021/10/23 04:57:32;;;;;;;;;;;;;;;6.94;58.63;98589.27;1741600;81;24737;-83
2021/10/23 04:59:58;;;;;;;;;;;;;;;6.93;58.76;98594.08;1743532;81;20829;-81
2021/10/23 05:02:28;;;;;;;;;;;;;;;6.91;58.89;98594.65;1743764;81;26027;-81
2021/10/23 05:04:51;;;;;;;;;;;;;;;6.88;58.98;98596.09;1741883;82;24415;-82
2021/10/23 05:07:17;;;;;;;;;;;;;;;6.87;59.11;98600.09;1744396;81;20470;-81
2021/10/23 05:09:43;;;;;;;;;;;;;;;6.87;59.21;98602.23;1742687;82;20341;-81
2021/10/23 05:12:09;;;;;;;;;;;;;;;6.87;59.30;98603.54;1744449;82;20887;-81
2021/10/23 05:14:35;;;;;;;;;;;;;;;6.87;59.40;98604.00;1744252;82;21018;-81
2021/10/23 05:17:01;;;;;;;;;;;;;;;6.89;59.48;98611.24;1744230;81;20857;-81
2021/10/23 05:19:27;;;;;;;;;;;;;;;6.87;59.60;98610.50;1744532;82;20817;-82
2021/10/23 05:21:53;;;;;;;;;;;;;;;6.89;59.69;98621.65;1739061;81;24809;-82
2021/10/23 05:24:19;;;;;;;;;;;;;;;6.91;59.78;98620.66;1727933;83;20513;-82
2021/10/23 05:26:45;;;;;;;;;;;;;;;6.93;59.86;98625.30;1727059;81;21139;-82
2021/10/23 05:29:11;;;;;;;;;;;;;;;6.92;59.95;98629.31;1728385;82;20805;-82
2021/10/23 05:31:37;;;;;;;;;;;;;;;6.92;60.05;98634.52;1728495;82;20308;-82
2021/10/23 05:34:03;;;;;;;;;;;;;;;6.92;60.15;98640.56;1727958;83;24775;-82
2021/10/23 05:36:29;;;;;;;;;;;;;;;6.92;60.25;98639.72;1728656;82;21409;-82
2021/10/23 05:38:55;;;;;;;;;;;;;;;6.94;60.34;98644.36;1728791;82;25976;-82
2021/10/23 05:41:21;;;;;;;;;;;;;;;6.94;60.44;98650.86;1726751;82;24441;-82
2021/10/23 05:43:50;;;;;;;;;;;;;;;6.94;60.53;98653.01;1724798;82;20230;-82
2021/10/23 05:46:17;;;;;;;;;;;;;;;6.96;60.63;98645.13;1727715;82;24821;-82
2021/10/23 05:48:43;;;;;;;;;;;;;;;6.93;60.74;98655.22;1728454;83;22016;-82
2021/10/23 05:51:08;;;;;;;;;;;;;;;6.91;60.83;98654.48;1728337;83;21134;-82
2021/10/23 05:53:34;;;;;;;;;;;;;;;6.93;60.95;98667.39;1728524;82;20781;-82
2021/10/23 05:56:00;;;;;;;;;;;;;;;6.93;61.04;98664.33;1728469;82;20306;-82
2021/10/23 05:58:29;;;;;;;;;;;;;;;6.94;61.17;98672.52;1728392;83;20793;-81
2021/10/23 06:00:59;;;;;;;;;;;;;;;6.98;61.28;98681.84;1728719;82;22171;-83
2021/10/23 06:03:24;;;;;;;;;;;;;;;7.00;61.39;98681.31;1728396;83;26548;-82
2021/10/23 06:05:56;;;;;;;;;;;;;;;7.02;61.48;98682.55;1726941;82;25121;-81
2021/10/23 06:08:22;;;;;;;;;;;;;;;7.04;61.60;98686.73;1698315;83;20233;-81
2021/10/23 06:10:48;;;;;;;;;;;;;;;7.07;61.72;98690.50;1728358;83;24740;-81
2021/10/23 06:13:15;;;;;;;;;;;;;;;7.09;61.81;98697.75;1727636;82;21924;-81
2021/10/23 06:15:41;;;;;;;;;;;;;;;7.12;61.90;98704.57;1727056;82;26100;-81
2021/10/23 06:18:06;;;;;;;;;;;;;;;7.16;61.98;98707.38;1728955;83;20856;-80
2021/10/23 06:20:32;;;;;;;;;;;;;;;7.17;62.07;98706.47;1728402;83;20795;-81
2021/10/23 06:22:58;;;;;;;;;;;;;;;7.18;62.14;98706.02;1727010;81;20284;-81
2021/10/23 06:25:24;;;;;;;;;;;;;;;7.16;62.19;98708.69;1728905;81;20238;-81
2021/10/23 06:27:51;;;;;;;;;;;;;;;7.15;62.25;98718.25;1728594;82;21207;-81
2021/10/23 06:30:25;;;;;;;;;;;;;;;7.15;62.32;98726.06;1728921;81;24056;-81
2021/10/23 06:32:52;;;;;;;;;;;;;;;7.13;62.37;98726.62;1728235;82;20175;-81
2021/10/23 06:35:18;;;;;;;;;;;;;;;7.09;62.45;98727.67;1690700;83;24652;-81
2021/10/23 06:37:44;;;;;;;;;;;;;;;7.07;62.50;98733.44;1727980;83;22058;-81
2021/10/23 06:40:11;;;;;;;;;;;;;;;7.05;62.55;98737.02;1726586;83;26154;-81
2021/10/23 06:42:39;;;;;;;;;;;;;;;7.00;62.62;98737.26;1728306;83;24427;-81
2021/10/23 06:45:07;;;;;;;;;;;;;;;7.00;62.70;98742.46;1726797;83;20496;-81
2021/10/23 06:47:34;;;;;;;;;;;;;;;7.00;62.76;98748.12;1728250;82;25574;-81
2021/10/23 06:49:59;;;;;;;;;;;;;;;7.02;62.84;98752.80;1703762;83;22041;-81
2021/10/23 06:52:26;;;;;;;;;;;;;;;7.04;62.93;98756.14;1728197;83;26109;-82
2021/10/23 06:54:52;;;;;;;;;;;;;;;7.04;63.01;98754.84;1727210;81;24400;-81
2021/10/23 06:57:18;;;;;;;;;;;;;;;7.05;63.07;98761.28;1724322;81;20305;-82
2021/10/23 06:59:44;;;;;;;;;;;;;;;7.07;63.15;98760.76;1728023;83;24733;-82
2021/10/23 07:02:10;;;;;;;;;;;;;;;7.10;63.24;98763.19;1726710;82;20361;-82
2021/10/23 07:04:36;;;;;;;;;;;;;;;7.14;63.29;98760.00;1726467;81;20926;-83
2021/10/23 07:07:02;;;;;;;;;;;;;;;7.20;63.38;98760.14;1728797;83;24437;-82
2021/10/23 07:09:28;;;;;;;;;;;;;;;7.23;63.45;98763.88;1728481;83;20310;-82
2021/10/23 07:11:54;;;;;;;;;;;;;;;7.28;63.51;98763.18;1728960;81;20784;-82
2021/10/23 07:14:20;;;;;;;;;;;;;;;7.35;63.58;98769.31;1728853;81;20394;-82
2021/10/23 07:16:47;;;;;;;;;;;;;;;7.44;63.68;98766.22;1728612;82;21168;-82
2021/10/23 07:19:13;;;;;;;;;;;;;;;7.51;63.76;98768.05;1728171;81;25078;-82
2021/10/23 07:21:39;;;;;;;;;;;;;;;7.55;63.79;98780.83;1728463;83;20309;-82
2021/10/23 07:24:05;;;;;;;;;;;;;;;7.60;63.84;98779.28;1728195;81;20860;-83
2021/10/23 07:26:31;;;;;;;;;;;;;;;7.63;63.86;98780.89;1728284;82;20298;-82
2021/10/23 07:28:57;;;;;;;;;;;;;;;7.66;63.89;98794.59;1728383;82;26052;-82
2021/10/23 07:31:23;;;;;;;;;;;;;;;7.68;63.92;98786.25;1728502;81;20289;-82
2021/10/23 07:33:50;;;;;;;;;;;;;;;7.73;63.93;98798.56;1728466;81;20211;-82
2021/10/23 07:36:19;;;;;;;;;;;;;;;7.77;63.92;98800.08;1727862;82;24808;-81
2021/10/23 07:38:51;;;;;;;;;;;;;;;7.80;63.95;98810.82;1728368;81;22072;-82
2021/10/23 07:41:18;;;;;;;;;;;;;;;7.85;63.93;98808.35;1728157;81;25806;-82
2021/10/23 07:44:00;;;;;;;;;;;;;;;7.90;63.94;98818.06;1704847;82;24456;-82
2021/10/23 07:46:16;;;;;;;;;;;;;;;7.98;63.96;98817.64;1724922;82;20162;-82
2021/10/23 07:48:42;;;;;;;;;;;;;;;8.03;63.97;98818.23;1726089;81;24715;-82
2021/10/23 07:51:08;;;;;;;;;;;;;;;8.07;63.98;98813.27;1728512;82;21635;-82
2021/10/23 07:53:36;;;;;;;;;;;;;;;8.07;63.92;98822.39;1725773;82;26019;-82
2021/10/23 07:56:02;;;;;;;;;;;;;;;8.13;63.91;98834.25;1728685;83;24463;-83
2021/10/23 07:58:28;;;;;;;;;;;;;;;8.18;63.89;98829.63;1727897;83;20784;-82
2021/10/23 08:00:54;;;;;;;;;;;;;;;8.24;63.88;98838.39;1728237;83;24869;-82
2021/10/23 08:03:22;;;;;;;;;;;;;;;8.29;63.82;98833.80;1729289;81;22066;-82
2021/10/23 08:05:48;;;;;;;;;;;;;;;8.43;63.85;98833.91;1724502;83;27940;-82
2021/10/23 08:08:14;;;;;;;;;;;;;;;8.52;63.86;98829.48;1727353;83;20293;-82
2021/10/23 08:10:40;;;;;;;;;;;;;;;8.54;63.75;98828.11;1726708;81;20257;-83
2021/10/23 08:13:05;;;;;;;;;;;;;;;8.58;63.69;98834.37;1725716;83;24830;-83
2021/10/23 08:15:33;;;;;;;;;;;;;;;8.59;63.61;98829.99;1699907;83;20845;-83
2021/10/23 08:17:59;;;;;;;;;;;;;;;8.67;63.57;98827.33;1727500;82;26069;-83
2021/10/23 08:20:31;;;;;;;;;;;;;;;8.81;63.62;98831.78;1725931;83;23424;-83
2021/10/23 08:22:57;;;;;;;;;;;;;;;8.89;63.61;98833.97;1727397;80;20285;-83
2021/10/23 08:25:26;;;;;;;;;;;;;;;8.88;63.53;98833.13;1724892;83;24806;-82
2021/10/23 08:27:56;;;;;;;;;;;;;;;8.81;63.37;98835.70;1726830;81;22742;-82
2021/10/23 08:30:22;;;;;;;;;;;;;;;8.80;63.21;98839.23;1726703;83;26007;-83
2021/10/23 08:32:49;;;;;;;;;;;;;;;8.84;63.16;98830.30;1726746;81;20812;-83
2021/10/23 08:35:16;;;;;;;;;;;;;;;8.91;63.08;98843.84;1727192;81;20600;-83
2021/10/23 08:37:41;;;;;;;;;;;;;;;8.93;63.00;98845.91;1728070;81;24747;-82
2021/10/23 08:40:08;;;;;;;;;;;;;;;8.96;62.92;98845.73;1727789;81;21999;-82
2021/10/23 08:42:34;;;;;;;;;;;;;;;8.99;62.84;98846.88;1727427;81;26029;-82
2021/10/23 08:45:03;;;;;;;;;;;;;;;8.94;62.70;98849.75;1727299;81;24470;-82
2021/10/23 08:47:29;;;;;;;;;;;;;;;8.91;62.57;98846.45;1727381;83;20219;-83
2021/10/23 08:49:56;;;;;;;;;;;;;;;8.89;62.47;98848.33;1727350;83;24827;-83
2021/10/23 08:52:23;;;;;;;;;;;;;;;8.90;62.38;98846.07;1725258;81;23514;-83
2021/10/23 08:54:49;;;;;;;;;;;;;;;9.00;62.36;98856.39;1727126;83;26086;-83
2021/10/23 08:57:25;;;;;;;;;;;;;;;9.11;62.37;98854.02;1726283;83;20304;-83
2021/10/23 08:59:50;;;;;;;;;;;;;;;9.23;62.38;98858.52;1728208;81;20214;-83
2021/10/23 09:02:18;;;;;;;;;;;;;;;9.31;62.32;98859.39;1728043;81;24807;-83
2021/10/23 09:04:45;;;;;;;;;;;;;;;9.34;62.24;98858.73;1728311;83;22277;-83
2021/10/23 09:07:15;;;;;;;;;;;;;;;9.35;62.12;98853.05;1725663;83;26001;-84
2021/10/23 09:09:52;;;;;;;;;;;;;;;9.40;62.02;98857.08;1727882;81;24401;-83
2021/10/23 09:12:22;;;;;;;;;;;;;;;9.45;61.89;98870.70;1728077;83;20202;-85
2021/10/23 09:14:50;;;;;;;;;;;;;;;9.51;61.79;98870.35;1727660;83;25673;-83
2021/10/23 09:17:17;;;;;;;;;;;;;;;9.56;61.67;98857.86;1725806;81;23105;-83
2021/10/23 09:19:45;;;;;;;;;;;;;;;9.65;61.60;98856.49;1727185;83;26070;-83
2021/10/23 09:22:22;;;;;;;;;;;;;;;9.76;61.51;98854.55;1727813;81;25404;-83
2021/10/23 09:24:49;;;;;;;;;;;;;;;9.88;61.42;98858.55;1693729;82;20255;-82
2021/10/23 09:27:18;;;;;;;;;;;;;;;9.95;61.27;98859.88;1685711;83;24849;-82
2021/10/23 09:29:44;;;;;;;;;;;;;;;10.00;61.09;98860.43;1677934;83;22036;-83
2021/10/23 09:32:11;;;;;;;;;;;;;;;10.02;60.91;98859.03;1678120;84;26081;-83
2021/10/23 09:34:43;;;;;;;;;;;;;;;10.00;60.67;98855.66;1679676;85;24594;-82
2021/10/23 09:37:09;;;;;;;;;;;;;;;9.98;60.38;98854.94;1683359;85;20379;-82
2021/10/23 09:39:36;;;;;;;;;;;;;;;9.93;60.10;98859.11;1680424;85;24609;-83
2021/10/23 09:42:18;;;;;;;;;;;;;;;9.88;59.82;98858.55;1721694;83;22044;-83
2021/10/23 09:45:06;;;;;;;;;;;;;;;9.82;59.56;98868.56;1725415;82;26770;-83
2021/10/23 09:47:42;;;;;;;;;;;;;;;9.76;59.31;98862.39;1728699;82;24572;-83
2021/10/23 09:50:11;;;;;;;;;;;;;;;9.74;59.08;98868.16;1721603;81;20283;-82
2021/10/23 09:52:54;;;;;;;;;;;;;;;9.72;58.93;98872.63;1725851;83;24775;-84
2021/10/23 09:55:22;;;;;;;;;;;;;;;9.74;58.81;98870.77;1724367;82;22683;-82
2021/10/23 09:57:50;;;;;;;;;;;;;;;9.77;58.73;98870.11;1724660;82;26200;-82
2021/10/23 10:00:16;;;;;;;;;;;;;;;9.82;58.68;98871.17;1670625;84;24693;-82
2021/10/23 10:02:42;;;;;;;;;;;;;;;9.87;58.65;98871.73;1668684;86;20362;-82
2021/10/23 10:05:10;;;;;;;;;;;;;;;9.85;58.56;98872.28;1693830;84;24824;-82
2021/10/23 10:07:36;;;;;;;;;;;;;;;9.80;58.43;98879.09;1688033;84;22066;-82
2021/10/23 10:10:03;;;;;;;;;;;;;;;9.79;58.37;98883.94;1688484;85;25991;-82
2021/10/23 10:12:32;;;;;;;;;;;;;;;9.80;58.29;98884.78;1733692;82;24434;-82
2021/10/23 10:14:58;;;;;;;;;;;;;;;9.81;58.25;98884.70;1730518;82;20263;-82
2021/10/23 10:17:25;;;;;;;;;;;;;;;9.85;58.20;98880.97;1726235;82;24282;-81
2021/10/23 10:19:52;;;;;;;;;;;;;;;9.90;58.22;98884.61;1724654;82;22143;-82
2021/10/23 10:22:18;;;;;;;;;;;;;;;9.90;58.13;98881.99;1726727;83;25996;-82
2021/10/23 10:24:44;;;;;;;;;;;;;;;9.91;58.04;98885.83;1709005;83;24456;-82
2021/10/23 10:27:17;;;;;;;;;;;;;;;9.90;57.91;98882.84;1725580;81;20476;-82
2021/10/23 10:29:46;;;;;;;;;;;;;;;9.91;57.77;98883.68;1691912;83;24781;-84
2021/10/23 10:32:29;;;;;;;;;;;;;;;9.89;57.68;98881.15;1689523;83;22809;-84
2021/10/23 10:35:11;;;;;;;;;;;;;;;9.89;57.57;98875.08;1720282;81;26116;-84
2021/10/23 10:42:50;;;;;;;;;;;;;;;9.88;57.20;98887.77;1724659;82;24767;-82
2021/10/23 10:45:30;;;;;;;;;;;;;;;9.87;57.12;98891.34;1708206;82;22812;-82
2021/10/23 10:48:09;;;;;;;;;;;;;;;9.93;57.10;98891.79;1758232;80;25981;-81
2021/10/23 10:50:46;;;;;;;;;;;;;;;10.02;57.12;98896.95;1755875;80;24551;-81
2021/10/23 10:53:31;;;;;;;;;;;;;;;10.07;57.07;98889.67;1756010;81;20212;-82
2021/10/23 10:56:05;;;;;;;;;;;;;;;10.09;56.95;98894.35;1756840;80;24927;-81
2021/10/23 10:58:45;;;;;;;;;;;;;;;10.11;56.85;98894.23;1758842;80;22057;-82
2021/10/23 11:01:15;;;;;;;;;;;;;;;10.13;56.81;98891.91;1755364;80;26055;-82
2021/10/23 11:03:43;;;;;;;;;;;;;;;10.18;56.72;98892.51;1758214;80;24469;-82
2021/10/23 11:06:29;;;;;;;;;;;;;;;10.31;56.67;98893.42;1759061;80;20147;-82
2021/10/23 11:09:15;;;;;;;;;;;;;;;10.52;56.66;98893.89;1729067;81;22380;-82
2021/10/23 11:11:45;;;;;;;;;;;;;;;10.76;56.65;98892.34;1755560;81;21927;-82
2021/10/23 11:14:28;;;;;;;;;;;;;;;11.07;56.70;98891.24;1759556;80;26036;-82
2021/10/23 11:17:01;;;;;;;;;;;;;;;11.24;56.67;98894.89;1760661;80;24551;-82
2021/10/23 11:19:25;;;;;;;;;;;;;;;11.23;56.47;98890.62;1719751;81;20245;-82
2021/10/23 11:21:52;;;;;;;;;;;;;;;11.17;56.21;98881.00;1727845;82;25496;-82
2021/10/23 11:24:18;;;;;;;;;;;;;;;11.15;56.04;98883.71;1728789;82;21980;-82
2021/10/23 11:26:46;;;;;;;;;;;;;;;11.09;55.74;98885.88;1713669;82;26759;-81
2021/10/23 11:29:20;;;;;;;;;;;;;;;11.01;55.46;98883.78;1737619;82;24524;-83
2021/10/23 11:31:46;;;;;;;;;;;;;;;10.96;55.25;98875.38;1733264;82;20235;-82
2021/10/23 11:34:20;;;;;;;;;;;;;;;10.89;55.04;98876.70;1702959;82;24888;-82
2021/10/23 11:36:49;;;;;;;;;;;;;;;10.81;54.81;98884.19;1734055;82;22053;-82
2021/10/23 11:39:21;;;;;;;;;;;;;;;10.71;54.63;98883.09;1729996;82;26086;-82
2021/10/23 11:41:47;;;;;;;;;;;;;;;10.69;54.51;98885.80;1733512;81;25487;-82
2021/10/23 11:44:13;;;;;;;;;;;;;;;10.70;54.45;98882.72;1734815;81;20251;-82
2021/10/23 11:46:39;;;;;;;;;;;;;;;10.69;54.38;98881.06;1735610;81;24738;-82
2021/10/23 11:49:08;;;;;;;;;;;;;;;10.71;54.32;98892.26;1734654;81;22174;-82
2021/10/23 11:51:34;;;;;;;;;;;;;;;10.71;54.25;98887.87;1701482;82;25814;-82
2021/10/23 11:54:05;;;;;;;;;;;;;;;10.70;54.14;98882.72;1734073;81;24484;-82
2021/10/23 11:56:31;;;;;;;;;;;;;;;10.69;54.08;98888.42;1732379;82;20170;-82
2021/10/23 11:58:59;;;;;;;;;;;;;;;10.71;53.98;98885.72;1734605;81;24715;-82
2021/10/23 12:01:27;;;;;;;;;;;;;;;10.75;53.92;98885.88;1734540;81;22114;-82
2021/10/23 12:04:00;;;;;;;;;;;;;;;10.81;53.89;98890.27;1734472;81;26000;-82
2021/10/23 12:06:26;;;;;;;;;;;;;;;10.84;53.84;98887.47;1734521;81;25205;-82
2021/10/23 12:08:56;;;;;;;;;;;;;;;10.83;53.80;98887.09;1736690;81;20210;-82
2021/10/23 12:11:29;;;;;;;;;;;;;;;10.82;53.76;98883.26;1734305;81;24816;-82
2021/10/23 12:13:57;;;;;;;;;;;;;;;10.75;53.64;98883.27;1734167;81;22093;-82
2021/10/23 12:16:40;;;;;;;;;;;;;;;10.67;53.46;98886.85;1689304;83;26099;-82
2021/10/23 12:19:08;;;;;;;;;;;;;;;10.57;53.34;98893.14;1696204;83;24419;-81
2021/10/23 12:21:35;;;;;;;;;;;;;;;10.50;53.20;98894.45;1692973;83;20298;-82
2021/10/23 12:24:03;;;;;;;;;;;;;;;10.45;53.15;98890.81;1693178;83;24057;-83
2021/10/23 12:26:30;;;;;;;;;;;;;;;10.40;53.05;98892.88;1685358;84;22126;-83
2021/10/23 12:28:58;;;;;;;;;;;;;;;10.34;52.95;98901.09;1708317;82;26408;-82
2021/10/23 12:31:25;;;;;;;;;;;;;;;10.29;52.84;98894.47;1729462;82;24531;-82
2021/10/23 12:34:05;;;;;;;;;;;;;;;10.25;52.74;98905.59;1727772;82;20174;-82
2021/10/23 12:36:32;;;;;;;;;;;;;;;10.23;52.70;98889.61;1714734;82;24511;-82
2021/10/23 12:39:18;;;;;;;;;;;;;;;10.17;52.65;98911.74;1728197;82;22775;-82
2021/10/23 12:41:44;;;;;;;;;;;;;;;10.12;52.62;98914.23;1724995;82;25965;-82
2021/10/23 12:44:12;;;;;;;;;;;;;;;10.08;52.60;98915.73;1725454;82;20218;-82
2021/10/23 12:46:37;;;;;;;;;;;;;;;10.09;52.61;98913.96;1724570;82;20453;-82
2021/10/23 12:49:03;;;;;;;;;;;;;;;10.08;52.65;98917.05;1726080;81;20230;-82
2021/10/23 12:51:31;;;;;;;;;;;;;;;10.03;52.67;98918.25;1726165;83;20242;-82
2021/10/23 12:53:58;;;;;;;;;;;;;;;9.92;52.71;98924.13;1727232;82;26818;-82
2021/10/23 12:56:24;;;;;;;;;;;;;;;9.76;52.79;98932.49;1725329;83;24624;-82
2021/10/23 12:58:50;;;;;;;;;;;;;;;9.62;52.97;98947.66;1724876;83;21924;-82
2021/10/23 13:01:16;;;;;;;;;;;;;;;9.45;53.18;98954.77;1724560;83;20749;-83
2021/10/23 13:03:42;;;;;;;;;;;;;;;9.31;53.43;98933.82;1722290;82;22742;-83